createdAt,value
2022-11-05T00:02:40.589Z,974.9
2022-11-05T00:10:28.769Z,975.01
2022-11-05T00:18:14.396Z,975.21
2022-11-05T00:26:03.142Z,975.26
2022-11-05T00:33:27.242Z,975.37
2022-11-05T00:41:10.376Z,975.51
2022-11-05T00:48:52.442Z,975.63
2022-11-05T00:56:25.812Z,975.82
2022-11-05T01:03:58.778Z,975.94
2022-11-05T01:11:39.191Z,976.09
2022-11-05T01:19:13.961Z,976.09
2022-11-05T01:26:51.432Z,976.12
2022-11-05T01:34:30.373Z,976.14
2022-11-05T01:42:02.404Z,976.06
2022-11-05T01:50:00.835Z,976.03
2022-11-05T01:58:12.646Z,975.92
2022-11-05T02:06:01.823Z,976.17
2022-11-05T02:13:56.556Z,976.28
2022-11-05T02:22:05.530Z,976.35
2022-11-05T02:30:06.579Z,976.37
2022-11-05T02:38:10.715Z,976.41
2022-11-05T02:46:21.859Z,976.58
2022-11-05T02:54:44.935Z,976.63
2022-11-05T03:02:52.379Z,976.72
2022-11-05T03:11:01.842Z,976.84
2022-11-05T03:19:11.445Z,976.99
2022-11-05T03:27:23.208Z,976.92
2022-11-05T03:35:36.421Z,976.95
2022-11-05T03:43:50.750Z,977
2022-11-05T03:52:05.944Z,976.94
2022-11-05T04:00:09.043Z,976.99
2022-11-05T04:07:44.791Z,977
2022-11-05T04:15:34.493Z,977.04
2022-11-05T04:23:21.561Z,977.13
2022-11-05T04:31:01.723Z,977.2
2022-11-05T04:38:44.788Z,977.34
2022-11-05T04:46:19.104Z,977.42
2022-11-05T04:53:56.721Z,977.48
2022-11-05T05:01:42.266Z,977.53
2022-11-05T05:09:18.152Z,977.59
2022-11-05T05:17:06.477Z,977.63
2022-11-05T05:24:39.359Z,977.73
2022-11-05T05:32:24.229Z,977.8
2022-11-05T05:39:55.634Z,977.91
2022-11-05T05:47:28.942Z,977.93
2022-11-05T05:55:07.306Z,978.01
2022-11-05T06:02:55.474Z,978.05
2022-11-05T06:10:30.802Z,978.16
2022-11-05T06:18:18.490Z,978.19
2022-11-05T06:26:03.394Z,978.3
2022-11-05T06:33:55.345Z,978.33
2022-11-05T06:42:12.484Z,978.38
2022-11-05T06:49:39.228Z,978.48
2022-11-05T06:57:13.552Z,978.55
2022-11-05T07:05:05.722Z,978.63
2022-11-05T07:12:54.535Z,978.81
2022-11-05T07:20:44.836Z,978.95
2022-11-05T07:28:24.351Z,979
2022-11-05T07:36:00.522Z,979.06
2022-11-05T07:43:41.999Z,979.29
2022-11-05T07:51:21.818Z,979.38
2022-11-05T07:58:55.427Z,979.49
2022-11-05T08:06:39.493Z,979.56
2022-11-05T08:14:17.338Z,979.58
2022-11-05T08:21:49.665Z,979.59
2022-11-05T08:29:39.511Z,979.61
2022-11-05T08:37:23.957Z,979.68
2022-11-05T08:45:12.265Z,979.63
2022-11-05T08:52:49.231Z,979.61
2022-11-05T09:00:31.708Z,979.66
2022-11-05T09:08:16.896Z,979.71
2022-11-05T09:16:03.608Z,979.79
2022-11-05T09:23:42.567Z,979.83
2022-11-05T09:31:28.040Z,979.9
2022-11-05T09:39:03.387Z,980.03
2022-11-05T09:47:01.225Z,980.12
2022-11-05T09:54:57.054Z,980.21
2022-11-05T10:02:57.149Z,980.29
2022-11-05T10:11:03.349Z,980.35
2022-11-05T10:19:14.263Z,980.37
2022-11-05T10:27:15.327Z,980.42
2022-11-05T10:35:00.295Z,980.46
2022-11-05T10:43:01.896Z,980.53
2022-11-05T10:51:07.668Z,980.64
2022-11-05T10:59:02.224Z,980.72
2022-11-05T11:07:08.232Z,980.78
2022-11-05T11:15:20.062Z,980.76
2022-11-05T11:23:16.777Z,980.78
2022-11-05T11:31:13.849Z,980.74
2022-11-05T11:39:18.072Z,980.69
2022-11-05T11:47:25.981Z,980.63
2022-11-05T11:55:37.519Z,980.71
2022-11-05T12:03:24.117Z,980.64
2022-11-05T12:11:32.548Z,980.64
2022-11-05T12:19:35.573Z,980.66
2022-11-05T12:27:50.109Z,980.65
2022-11-05T12:36:07.041Z,980.65
2022-11-05T12:44:29.077Z,980.74
2022-11-05T12:52:43.384Z,980.79
2022-11-05T13:01:04.375Z,980.77
2022-11-05T13:09:12.569Z,980.6
2022-11-05T13:17:21.245Z,980.65
2022-11-05T13:25:38.065Z,980.61
2022-11-05T13:33:54.048Z,980.56
2022-11-05T13:42:12.985Z,980.51
2022-11-05T13:50:19.749Z,980.49
2022-11-05T13:58:34.050Z,980.47
2022-11-05T14:06:40.697Z,980.4
2022-11-05T14:14:41.794Z,980.39
2022-11-05T14:22:54.772Z,980.37
2022-11-05T14:30:54.182Z,980.27
2022-11-05T14:39:04.892Z,980.26
2022-11-05T14:47:23.967Z,980.27
2022-11-05T14:55:43.781Z,980.32
2022-11-05T15:03:19.103Z,980.32
2022-11-05T15:11:33.683Z,980.35
2022-11-05T15:19:45.446Z,980.4
2022-11-05T15:27:47.112Z,980.37
2022-11-05T15:35:56.873Z,980.3
2022-11-05T15:44:16.159Z,980.24
2022-11-05T15:52:11.789Z,980.32
2022-11-05T16:00:19.940Z,980.28
2022-11-05T16:08:32.252Z,980.37
2022-11-05T16:16:40.035Z,980.37
2022-11-05T16:24:30.392Z,980.43
2022-11-05T16:32:32.703Z,980.41
2022-11-05T16:40:18.317Z,980.54
2022-11-05T16:48:13.076Z,980.58
2022-11-05T16:55:46.758Z,980.47
2022-11-05T17:03:39.670Z,980.56
2022-11-05T17:11:12.915Z,980.6
2022-11-05T17:18:52.849Z,980.59
2022-11-05T17:26:46.416Z,980.64
2022-11-05T17:34:16.094Z,980.71
2022-11-05T17:42:09.076Z,980.72
2022-11-05T17:49:42.950Z,980.78
2022-11-05T17:57:23.630Z,980.81
2022-11-05T18:05:15.139Z,980.78
2022-11-05T18:12:56.440Z,980.74
2022-11-05T18:20:31.949Z,980.78
2022-11-05T18:28:09.121Z,980.8
2022-11-05T18:35:55.606Z,980.75
2022-11-05T18:43:35.761Z,980.71
2022-11-05T18:51:09.532Z,980.72
2022-11-05T18:58:44.725Z,980.72
2022-11-05T19:06:32.127Z,980.68
2022-11-05T19:14:12.642Z,980.76
2022-11-05T19:21:45.538Z,980.71
2022-11-05T19:29:33.379Z,980.68
2022-11-05T19:37:13.854Z,980.57
2022-11-05T19:45:23.407Z,980.58
2022-11-05T19:52:53.769Z,980.56
2022-11-05T20:00:23.606Z,980.54
2022-11-05T20:07:59.986Z,980.52
2022-11-05T20:15:34.121Z,980.53
2022-11-05T20:23:29.232Z,980.51
2022-11-05T20:31:13.406Z,980.59
2022-11-05T20:38:59.921Z,980.56
2022-11-05T20:46:39.863Z,980.63
2022-11-05T20:54:26.373Z,980.64
2022-11-05T21:02:02.262Z,980.61
2022-11-05T21:09:39.892Z,980.66
2022-11-05T21:17:21.307Z,980.74
2022-11-05T21:24:57.063Z,980.78
2022-11-05T21:32:32.782Z,980.69
2022-11-05T21:40:21.146Z,980.73
2022-11-05T21:47:54.935Z,980.76
2022-11-05T21:55:33.550Z,980.75
2022-11-05T22:03:10.931Z,980.71
2022-11-05T22:11:00.751Z,980.76
2022-11-05T22:18:50.883Z,980.69
2022-11-05T22:26:44.195Z,980.71
2022-11-05T22:34:14.934Z,980.62
2022-11-05T22:41:52.110Z,980.59
2022-11-05T22:49:36.501Z,980.64
2022-11-05T22:57:22.112Z,980.46
2022-11-05T23:05:01.476Z,980.53
2022-11-05T23:12:35.077Z,980.51
2022-11-05T23:20:06.918Z,980.48
2022-11-05T23:27:45.405Z,980.44
2022-11-05T23:35:14.888Z,980.48
2022-11-05T23:42:41.692Z,980.32
2022-11-05T23:50:08.596Z,980.22
2022-11-05T23:57:58.928Z,980.06
